14°C Temp
13°C Dewpoint
% Humidity
Temperature
8 KM/H
5 MPH
4 KTS
110°
East South
East

Wind Speed
Mostly Scattered
Clouds
Pressure 1014.92 (hPa) - 29.97 (in)
Visibility 6.2 (mi) - 10.0 (km)

Current Conditions
LIRQ
Location 35(km)
Metar :LIRQ 251920Z 11004KT 9999 SCT040 14/13 Q1015
Sun 25th October 21:20 pm

Airport
  Metar Aviation API Data Provided by https://www.checkwx.com/ PHP scripts by weather34.com ©2020